Time;durP1;ratioP1;P1;durP2;ratioP2;P2;SDS_P1;SDS_P2;PMS_P1;PMS_P2;Temp;Humidity;BMP_temperature;BMP_pressure;BME280_temperature;BME280_humidity;BME280_pressure;Samples;Min_cycle;Max_cycle;Signal;HPM_P1;HPM_P2
2023/06/19 00:02:19;;;;;;;0.00;0.00;;;;;;;13.63;98.33;99679.13;5081181;28;20036;-75
2023/06/19 00:04:44;;;;;;;0.00;0.00;;;;;;;13.62;98.19;99680.25;5079067;28;20028;-73
2023/06/19 00:07:12;;;;;;;0.00;0.00;;;;;;;13.60;98.02;99679.75;5078833;28;20386;-76
2023/06/19 00:09:39;;;;;;;0.00;0.00;;;;;;;13.47;98.21;99667.63;5078244;28;20463;-75
2023/06/19 00:12:15;;;;;;;0.00;0.00;;;;;;;13.41;98.55;99677.91;5072262;28;20071;-74
2023/06/19 00:14:41;;;;;;;0.00;0.00;;;;;;;13.41;98.98;99699.88;5074990;28;20028;-75
2023/06/19 00:17:06;;;;;;;0.00;0.00;;;;;;;13.27;98.72;99682.50;5082080;28;20040;-77
2023/06/19 00:19:35;;;;;;;0.00;0.00;;;;;;;13.27;98.80;99699.00;5065656;28;20122;-75
2023/06/19 00:22:12;;;;;;;0.00;0.00;;;;;;;13.15;98.91;99685.75;5077636;28;20568;-75
2023/06/19 00:24:41;;;;;;;0.00;0.00;;;;;;;13.06;99.31;99682.06;5077265;28;20031;-74
2023/06/19 00:27:06;;;;;;;0.00;0.00;;;;;;;13.15;99.20;99706.91;5079280;28;20045;-74
2023/06/19 00:29:32;;;;;;;0.00;0.00;;;;;;;12.95;98.88;99686.91;5079721;28;20035;-75
2023/06/19 00:32:04;;;;;;;0.00;0.00;;;;;;;13.01;99.25;99702.19;5081072;28;20043;-76
2023/06/19 00:34:40;;;;;;;;;;;;;;;;;;;;;
2023/06/19 00:37:06;;;;;;;0.00;0.00;;;;;;;12.91;99.24;99703.16;5082794;28;20027;-74
2023/06/19 00:39:32;;;;;;;0.00;0.00;;;;;;;12.88;99.57;99713.94;5081682;28;20107;-74
2023/06/19 00:41:58;;;;;;;0.00;0.00;;;;;;;12.86;99.24;99716.16;5068657;28;20573;-72
2023/06/19 00:44:23;;;;;;;0.00;0.00;;;;;;;12.79;99.97;99715.72;5067254;28;20035;-75
2023/06/19 00:46:57;;;;;;;0.00;0.00;;;;;;;12.77;99.98;99715.19;5062178;28;20109;-76
2023/06/19 00:49:27;;;;;;;0.00;0.00;;;;;;;12.71;99.73;99708.97;5086391;28;20019;-73
2023/06/19 00:51:55;;;;;;;0.00;0.00;;;;;;;12.57;99.52;99697.91;5079754;28;20115;-76
2023/06/19 00:54:21;;;;;;;0.00;0.00;;;;;;;12.67;99.81;99719.72;5069538;28;20027;-75
2023/06/19 00:56:54;;;;;;;0.00;0.00;;;;;;;12.56;99.76;99701.78;5077818;28;20354;-75
2023/06/19 00:59:29;;;;;;;0.00;0.00;;;;;;;12.58;99.84;99713.28;5100717;27;20606;-76
2023/06/19 01:01:56;;;;;;;0.00;0.00;;;;;;;12.56;100.00;99708.09;5071081;28;20035;-74
2023/06/19 01:04:21;;;;;;;0.00;0.00;;;;;;;12.53;100.00;99696.91;5068925;28;20073;-75
2023/06/19 01:07:15;;;;;;;0.00;0.00;;;;;;;12.64;100.00;99709.34;5061404;28;20115;-74
2023/06/19 01:09:52;;;;;;;0.00;0.00;;;;;;;12.55;100.00;99711.13;5077545;28;20470;-75
2023/06/19 01:12:27;;;;;;;0.00;0.00;;;;;;;12.45;100.00;99683.84;5114944;27;20070;-75
2023/06/19 01:15:09;;;;;;;0.00;0.00;;;;;;;12.43;100.00;99691.56;5096511;28;20038;-74
2023/06/19 01:17:36;;;;;;;0.00;0.00;;;;;;;12.47;100.00;99692.59;5084508;28;20012;-74
2023/06/19 01:20:10;;;;;;;0.00;0.00;;;;;;;12.37;100.00;99675.19;5081047;28;20039;-78
2023/06/19 03:44:19;;;;;;;0.00;0.00;;;;;;;13.48;100.00;99770.06;4764011;30;20074;-76
2023/06/19 03:46:47;;;;;;;0.00;0.00;;;;;;;13.47;100.00;99768.44;4795778;29;20081;-78
2023/06/19 03:49:12;;;;;;;0.00;0.00;;;;;;;13.54;100.00;99775.16;4942744;28;20045;-76
2023/06/19 03:51:38;;;;;;;0.00;0.00;;;;;;;13.65;100.00;99791.47;5058287;28;20440;-78
2023/06/19 03:54:03;;;;;;;0.00;0.00;;;;;;;13.71;100.00;99793.84;5085944;28;20024;-77
2023/06/19 03:56:29;;;;;;;0.00;0.00;;;;;;;13.73;100.00;99791.59;5078121;28;20066;-78
2023/06/19 03:58:54;;;;;;;0.00;0.00;;;;;;;13.84;100.00;99789.47;5066032;28;20036;-77
2023/06/19 04:01:20;;;;;;;0.00;0.00;;;;;;;13.86;100.00;99791.94;5053650;28;20041;-76
2023/06/19 04:03:45;;;;;;;0.00;0.00;;;;;;;13.95;100.00;99784.59;5084191;28;20119;-77
2023/06/19 04:06:10;;;;;;;0.00;0.00;;;;;;;14.01;100.00;99788.88;5067781;28;20111;-76
2023/06/19 04:08:36;;;;;;;0.00;0.00;;;;;;;14.12;100.00;99784.81;5060660;28;20459;-76
2023/06/19 04:11:01;;;;;;;0.00;0.00;;;;;;;14.25;100.00;99782.34;5111577;27;20028;-76
2023/06/19 04:13:29;;;;;;;0.00;0.00;;;;;;;14.37;100.00;99777.16;5063115;28;20632;-77
2023/06/19 04:15:55;;;;;;;0.00;0.00;;;;;;;14.46;100.00;99771.75;5058503;28;20033;-76
2023/06/19 04:18:28;;;;;;;0.00;0.00;;;;;;;14.65;100.00;99790.91;5041751;28;20080;-76
2023/06/19 04:20:53;;;;;;;0.00;0.00;;;;;;;14.74;100.00;99788.25;5069655;28;20034;-77
2023/06/19 04:23:19;;;;;;;0.00;0.00;;;;;;;14.83;100.00;99792.72;5069106;28;20036;-76
2023/06/19 04:25:44;;;;;;;0.00;0.00;;;;;;;14.95;100.00;99794.06;5056862;28;20036;-77
2023/06/19 04:28:09;;;;;;;0.00;0.00;;;;;;;15.00;100.00;99789.28;5061405;28;20032;-76
2023/06/19 04:30:35;;;;;;;0.00;0.00;;;;;;;15.09;100.00;99789.34;5071530;28;20020;-78
2023/06/19 04:33:00;;;;;;;0.00;0.00;;;;;;;15.22;100.00;99801.44;5070437;28;20024;-78
2023/06/19 04:35:45;;;;;;;0.00;0.00;;;;;;;15.24;100.00;99801.94;5061163;28;20028;-76
2023/06/19 04:38:10;;;;;;;0.00;0.00;;;;;;;15.32;100.00;99800.38;5086579;28;20491;-77
2023/06/19 04:40:43;;;;;;;0.00;0.00;;;;;;;15.27;100.00;99789.47;5081478;28;20158;-77
2023/06/19 04:43:16;;;;;;;0.00;0.00;;;;;;;15.38;100.00;99806.59;5064880;28;20032;-76
2023/06/19 04:45:42;;;;;;;0.00;0.00;;;;;;;15.34;100.00;99796.16;5072097;28;20036;-76
2023/06/19 04:48:07;;;;;;;0.00;0.00;;;;;;;15.43;100.00;99804.50;5052834;28;20098;-78
2023/06/19 04:50:43;;;;;;;0.00;0.00;;;;;;;15.44;99.85;99805.31;5046215;28;20040;-78
2023/06/19 04:53:08;;;;;;;0.00;0.00;;;;;;;15.56;100.00;99816.56;5065879;28;20036;-77
2023/06/19 04:55:33;;;;;;;0.00;0.00;;;;;;;15.62;99.60;99817.25;5077634;28;20915;-77
2023/06/19 04:57:59;;;;;;;0.00;0.00;;;;;;;15.67;99.74;99826.22;5071613;28;20148;-77
2023/06/19 05:00:25;;;;;;;0.00;0.00;;;;;;;15.74;99.99;99831.31;5071899;28;20028;-76
2023/06/19 05:02:50;;;;;;;0.00;0.00;;;;;;;15.72;99.50;99822.50;5077794;28;20047;-79
2023/06/19 05:05:17;;;;;;;0.00;0.00;;;;;;;15.72;99.65;99833.53;5078175;28;20020;-77
2023/06/19 05:07:42;;;;;;;0.00;0.00;;;;;;;15.82;99.77;99838.00;5067094;28;20028;-79
2023/06/19 05:10:08;;;;;;;0.00;0.00;;;;;;;15.79;99.40;99820.16;5060078;28;20439;-75
2023/06/19 05:12:36;;;;;;;0.00;0.00;;;;;;;15.90;98.94;99819.88;5055732;28;20386;-77
2023/06/19 05:15:05;;;;;;;0.00;0.00;;;;;;;15.97;98.43;99829.31;5065349;28;20082;-78
2023/06/19 05:17:31;;;;;;;0.00;0.00;;;;;;;15.96;98.31;99815.84;5070886;28;20159;-80
2023/06/19 05:19:56;;;;;;;0.00;0.00;;;;;;;16.05;97.88;99822.25;5060063;28;20115;-79
2023/06/19 05:22:23;;;;;;;0.00;0.00;;;;;;;16.17;97.51;99836.22;5088188;28;20032;-79
2023/06/19 05:24:49;;;;;;;0.00;0.00;;;;;;;16.13;97.13;99832.47;5058417;28;20479;-79
2023/06/19 05:27:14;;;;;;;0.00;0.00;;;;;;;16.05;97.10;99825.00;5041225;28;20040;-78
2023/06/19 05:29:40;;;;;;;0.00;0.00;;;;;;;15.90;97.42;99828.97;5065390;28;20057;-79
2023/06/19 05:32:06;;;;;;;0.00;0.00;;;;;;;15.88;97.85;99837.53;5077889;28;20466;-79
2023/06/19 05:34:39;;;;;;;0.00;0.00;;;;;;;15.69;98.31;99806.59;5106329;28;20069;-79
2023/06/19 05:37:56;;;;;;;0.00;0.00;;;;;;;15.76;98.11;99826.28;5073421;28;20059;-80
2023/06/19 05:40:24;;;;;;;0.00;0.00;;;;;;;15.58;98.63;99806.06;5097314;28;20050;-79
2023/06/19 05:42:49;;;;;;;0.00;0.00;;;;;;;15.79;98.50;99828.44;5058870;28;20051;-80
2023/06/19 05:45:30;;;;;;;;;;;;;;;;;;;;;
2023/06/19 05:47:59;;;;;;;0.00;0.00;;;;;;;16.33;97.25;99820.06;5072370;28;20435;-79
2023/06/19 05:50:34;;;;;;;;;;;;;;;;;;;;;
2023/06/19 05:53:36;;;;;;;0.00;0.00;;;;;;;16.85;93.88;99819.38;5072630;28;20033;-80
2023/06/19 05:56:05;;;;;;;0.00;0.00;;;;;;;16.97;92.69;99810.50;5077965;28;20044;-79
2023/06/19 05:58:31;;;;;;;0.00;0.00;;;;;;;17.08;92.12;99828.38;5063669;28;20037;-80
2023/06/19 06:00:58;;;;;;;0.00;0.00;;;;;;;16.92;92.40;99825.28;5077008;28;20371;-76
2023/06/19 06:03:30;;;;;;;0.00;0.00;;;;;;;16.61;91.96;99807.97;5074064;28;20067;-75
2023/06/19 06:06:02;;;;;;;0.00;0.00;;;;;;;16.45;93.72;99816.69;5064235;28;20048;-75
2023/06/19 06:08:30;;;;;;;0.00;0.00;;;;;;;16.40;94.36;99808.59;5065016;28;20039;-76
2023/06/19 06:10:55;;;;;;;0.00;0.00;;;;;;;16.43;94.18;99802.41;5060172;28;20768;-81
2023/06/19 06:13:21;;;;;;;0.00;0.00;;;;;;;16.36;93.94;99791.84;5101512;27;20043;-79
2023/06/19 06:15:49;;;;;;;0.00;0.00;;;;;;;16.45;94.12;99804.84;5091001;28;20052;-76
2023/06/19 06:18:17;;;;;;;0.00;0.00;;;;;;;16.41;93.95;99788.09;5108052;27;20031;-76
2023/06/19 06:20:42;;;;;;;0.00;0.00;;;;;;;16.51;93.14;99798.03;5066970;28;20437;-77
2023/06/19 06:23:08;;;;;;;0.00;0.00;;;;;;;16.50;92.83;99790.88;5061991;28;20024;-77
2023/06/19 06:25:33;;;;;;;0.00;0.00;;;;;;;16.50;91.56;99797.25;5056913;28;20034;-77
2023/06/19 06:27:58;;;;;;;0.00;0.00;;;;;;;16.60;91.64;99796.09;5086392;28;20462;-76
2023/06/19 06:30:24;;;;;;;0.00;0.00;;;;;;;16.71;91.63;99785.59;5082663;28;20048;-77
2023/06/19 06:32:50;;;;;;;0.00;0.00;;;;;;;16.83;90.54;99809.78;5081758;28;20118;-76
2023/06/19 06:35:16;;;;;;;0.00;0.00;;;;;;;17.14;90.27;99814.38;5068242;28;20039;-77
2023/06/19 06:37:43;;;;;;;0.00;0.00;;;;;;;17.56;87.31;99814.69;5072110;28;20029;-77
2023/06/19 06:40:09;;;;;;;0.00;0.00;;;;;;;17.89;85.65;99805.84;5095395;28;20028;-78
2023/06/19 06:42:38;;;;;;;0.00;0.00;;;;;;;18.25;82.94;99813.69;5087419;28;20031;-77
2023/06/19 06:45:07;;;;;;;0.00;0.00;;;;;;;18.44;82.17;99812.44;5081625;28;20055;-78
2023/06/19 06:47:33;;;;;;;0.00;0.00;;;;;;;18.56;80.69;99820.03;5086688;28;20016;-77
2023/06/19 06:49:58;;;;;;;0.00;0.00;;;;;;;18.69;80.77;99826.47;5080413;28;20033;-75
2023/06/19 06:52:24;;;;;;;0.00;0.00;;;;;;;18.94;79.16;99814.44;5081112;28;20101;-77
2023/06/19 06:54:50;;;;;;;0.00;0.00;;;;;;;19.31;77.23;99839.56;5082176;28;20412;-77
2023/06/19 06:57:16;;;;;;;0.00;0.00;;;;;;;19.31;76.53;99834.03;5079207;28;20031;-77
2023/06/19 06:59:41;;;;;;;0.00;0.00;;;;;;;19.38;75.84;99829.88;5059640;28;20044;-77
2023/06/19 07:02:07;;;;;;;0.00;0.00;;;;;;;19.47;74.84;99850.84;5071968;28;20042;-76
2023/06/19 07:04:32;;;;;;;0.00;0.00;;;;;;;19.26;75.58;99839.78;5084871;28;20028;-76
2023/06/19 07:06:58;;;;;;;0.00;0.00;;;;;;;19.30;75.45;99857.38;5060826;28;20111;-79
2023/06/19 07:09:33;;;;;;;0.00;0.00;;;;;;;19.63;75.10;99844.69;5068102;28;20028;-81
2023/06/19 07:11:58;;;;;;;0.00;0.00;;;;;;;19.76;73.67;99845.53;5069599;28;20021;-76
2023/06/19 07:14:24;;;;;;;0.00;0.00;;;;;;;19.92;74.01;99854.03;5058941;28;21553;-75
2023/06/19 07:16:59;;;;;;;0.00;0.00;;;;;;;19.96;74.38;99838.31;5078413;28;20806;-79
2023/06/19 07:19:24;;;;;;;0.00;0.00;;;;;;;19.99;72.53;99827.34;5077804;28;20073;-79
2023/06/19 07:21:51;;;;;;;0.00;0.00;;;;;;;20.00;71.55;99840.06;5065951;28;20119;-80
2023/06/19 07:24:16;;;;;;;0.00;0.00;;;;;;;19.89;71.83;99847.22;5076124;28;20653;-79
2023/06/19 07:26:41;;;;;;;0.00;0.00;;;;;;;20.01;72.06;99858.34;5070336;28;20027;-76
2023/06/19 07:29:07;;;;;;;0.00;0.00;;;;;;;19.92;72.03;99860.41;5073864;28;20052;-78
2023/06/19 07:31:32;;;;;;;0.00;0.00;;;;;;;19.70;72.39;99837.41;5049374;28;20031;-78
2023/06/19 07:33:58;;;;;;;0.00;0.00;;;;;;;19.72;72.33;99864.81;5102794;27;20459;-78
2023/06/19 07:36:23;;;;;;;0.00;0.00;;;;;;;19.77;72.41;99874.88;5058647;28;20025;-79
2023/06/19 07:38:49;;;;;;;0.00;0.00;;;;;;;19.53;72.22;99865.31;5044681;28;20047;-78
2023/06/19 07:41:22;;;;;;;0.00;0.00;;;;;;;19.48;72.12;99871.88;5047893;28;20062;-79
2023/06/19 07:43:47;;;;;;;0.00;0.00;;;;;;;19.68;72.09;99877.72;5092411;28;20028;-77
2023/06/19 07:46:12;;;;;;;0.00;0.00;;;;;;;19.90;70.89;99879.34;5076287;28;20028;-78
2023/06/19 07:48:38;;;;;;;0.00;0.00;;;;;;;20.05;69.79;99875.91;5042593;28;20059;-78
2023/06/19 07:51:03;;;;;;;0.00;0.00;;;;;;;20.57;69.85;99885.59;5062613;28;20031;-77
2023/06/19 07:53:29;;;;;;;0.00;0.00;;;;;;;20.93;68.80;99875.63;5069603;28;20077;-80
2023/06/19 07:55:54;;;;;;;0.00;0.00;;;;;;;21.38;65.58;99889.69;5066870;28;20154;-79
2023/06/19 07:58:20;;;;;;;0.00;0.00;;;;;;;21.54;64.37;99890.59;5099118;28;20020;-69
2023/06/19 08:00:45;;;;;;;0.00;0.00;;;;;;;21.49;65.00;99884.44;5073974;28;20406;-69
2023/06/19 08:03:10;;;;;;;0.00;0.00;;;;;;;21.76;65.35;99886.44;5053757;28;20059;-69
2023/06/19 08:05:36;;;;;;;0.00;0.00;;;;;;;22.20;63.96;99884.81;5074100;28;20035;-71
2023/06/19 08:08:01;;;;;;;0.00;0.00;;;;;;;22.27;63.80;99885.00;5062517;28;20425;-71
2023/06/19 08:10:27;;;;;;;0.00;0.00;;;;;;;22.38;62.66;99880.53;5073530;28;20142;-70
2023/06/19 08:12:52;;;;;;;0.00;0.00;;;;;;;22.16;62.89;99878.34;5079644;28;20043;-69
2023/06/19 08:15:17;;;;;;;0.00;0.00;;;;;;;22.14;63.71;99882.28;5051598;28;20111;-70
2023/06/19 08:17:43;;;;;;;0.00;0.00;;;;;;;22.54;62.51;99893.66;5072632;28;20024;-69
2023/06/19 08:20:11;;;;;;;0.00;0.00;;;;;;;22.67;61.62;99881.22;5068021;28;20035;-69
2023/06/19 08:22:37;;;;;;;0.00;0.00;;;;;;;22.61;61.18;99888.25;5064732;28;20020;-69
2023/06/19 08:25:03;;;;;;;0.00;0.00;;;;;;;22.12;61.82;99890.19;5073042;28;20031;-69
2023/06/19 08:27:31;;;;;;;0.00;0.00;;;;;;;21.89;63.32;99884.41;5080826;28;20498;-69
2023/06/19 08:29:57;;;;;;;0.00;0.00;;;;;;;21.75;62.89;99890.38;5074343;28;20028;-69
2023/06/19 08:32:22;;;;;;;0.00;0.00;;;;;;;21.62;62.14;99899.94;5072844;28;20024;-69
2023/06/19 08:34:47;;;;;;;0.00;0.00;;;;;;;21.51;62.08;99904.38;5073701;28;20059;-68
2023/06/19 08:37:13;;;;;;;0.00;0.00;;;;;;;21.51;62.40;99907.16;5053664;28;20041;-69
2023/06/19 08:39:39;;;;;;;0.00;0.00;;;;;;;21.48;63.21;99894.75;5074178;28;20780;-69
2023/06/19 08:42:08;;;;;;;0.00;0.00;;;;;;;21.28;62.62;99896.53;5069107;28;20077;-68
2023/06/19 08:44:35;;;;;;;0.00;0.00;;;;;;;21.25;62.89;99906.38;5072581;28;20555;-70
2023/06/19 08:47:03;;;;;;;0.00;0.00;;;;;;;21.45;62.21;99901.81;5072483;28;20028;-69
2023/06/19 08:49:35;;;;;;;0.00;0.00;;;;;;;21.90;62.25;99904.69;5067360;28;20647;-70
2023/06/19 08:52:02;;;;;;;0.00;0.00;;;;;;;22.30;59.98;99906.56;5077631;28;20107;-69
2023/06/19 08:54:28;;;;;;;0.00;0.00;;;;;;;22.45;59.53;99914.13;5056521;28;20070;-69
2023/06/19 08:56:54;;;;;;;0.00;0.00;;;;;;;22.66;58.50;99901.91;5071366;28;20020;-69
2023/06/19 08:59:20;;;;;;;0.00;0.00;;;;;;;22.65;58.19;99903.88;5065807;28;20055;-69
2023/06/19 09:01:53;;;;;;;0.00;0.00;;;;;;;22.94;57.66;99895.38;5072806;28;20042;-69
2023/06/19 09:04:20;;;;;;;0.00;0.00;;;;;;;23.16;56.72;99894.75;5077129;28;20043;-68
2023/06/19 09:06:52;;;;;;;0.00;0.00;;;;;;;22.87;57.47;99900.78;5067252;28;20040;-69
2023/06/19 09:09:23;;;;;;;0.00;0.00;;;;;;;22.72;57.77;99900.47;5070447;28;20031;-69
2023/06/19 09:12:01;;;;;;;0.00;0.00;;;;;;;22.64;57.15;99907.03;5072568;28;20379;-69
2023/06/19 09:14:40;;;;;;;0.00;0.00;;;;;;;22.59;57.32;99902.56;5071077;28;20044;-70
2023/06/19 09:17:08;;;;;;;0.00;0.00;;;;;;;22.39;57.67;99898.84;5064224;28;20400;-69
2023/06/19 09:19:36;;;;;;;0.00;0.00;;;;;;;22.22;57.72;99904.75;5082382;28;20177;-68
2023/06/19 09:22:04;;;;;;;0.00;0.00;;;;;;;22.13;59.16;99894.56;5057590;28;20462;-69
2023/06/19 09:24:37;;;;;;;0.00;0.00;;;;;;;22.25;59.27;99898.47;5058530;28;20036;-71
2023/06/19 09:27:12;;;;;;;0.00;0.00;;;;;;;22.65;58.61;99908.66;5066061;28;20085;-69
2023/06/19 09:29:38;;;;;;;0.00;0.00;;;;;;;22.97;56.70;99901.06;5070947;28;20492;-69
2023/06/19 09:32:25;;;;;;;0.00;0.00;;;;;;;23.34;56.09;99902.69;5053991;28;20115;-69
2023/06/19 09:34:53;;;;;;;0.00;0.00;;;;;;;23.25;55.79;99897.31;5051179;28;20100;-70
2023/06/19 09:37:25;;;;;;;0.00;0.00;;;;;;;23.45;55.98;99903.75;5043324;28;20063;-70
2023/06/19 09:40:10;;;;;;;0.00;0.00;;;;;;;23.56;55.44;99903.16;5034765;28;20036;-72
2023/06/19 09:42:43;;;;;;;0.00;0.00;;;;;;;23.69;54.35;99897.03;5065210;28;20027;-69
2023/06/19 09:45:12;;;;;;;0.00;0.00;;;;;;;23.66;53.83;99891.41;5075788;28;20032;-70
2023/06/19 09:47:37;;;;;;;0.00;0.00;;;;;;;24.07;52.65;99883.44;5055661;28;20513;-69
2023/06/19 09:50:04;;;;;;;0.00;0.00;;;;;;;24.50;51.21;99878.59;5078866;28;20020;-70
2023/06/19 09:52:29;;;;;;;0.00;0.00;;;;;;;25.02;50.80;99883.81;5075691;28;20035;-69
2023/06/19 09:54:57;;;;;;;0.00;0.00;;;;;;;25.46;48.60;99888.81;5071370;28;20036;-69
2023/06/19 09:57:23;;;;;;;0.00;0.00;;;;;;;25.60;47.89;99889.00;5054619;28;20540;-71
2023/06/19 09:59:56;;;;;;;0.00;0.00;;;;;;;25.92;47.38;99891.38;5053122;28;20036;-72
2023/06/19 10:02:22;;;;;;;0.00;0.00;;;;;;;26.02;46.17;99881.50;5077906;28;20529;-68
2023/06/19 10:04:54;;;;;;;0.00;0.00;;;;;;;25.88;45.16;99893.31;5047494;28;20028;-69
2023/06/19 10:07:27;;;;;;;0.00;0.00;;;;;;;25.41;45.56;99891.97;5060102;28;20029;-69
2023/06/19 10:10:06;;;;;;;0.00;0.00;;;;;;;25.30;46.71;99888.19;5069953;28;20054;-69
2023/06/19 10:12:43;;;;;;;0.00;0.00;;;;;;;25.22;46.45;99912.47;5080907;28;20481;-69
2023/06/19 10:15:12;;;;;;;0.00;0.00;;;;;;;25.23;46.43;99909.28;5067521;28;20107;-70
2023/06/19 10:17:42;;;;;;;0.00;0.00;;;;;;;25.45;46.41;99898.38;5046201;28;20351;-69
2023/06/19 10:20:33;;;;;;;0.00;0.00;;;;;;;25.98;44.08;99907.81;5068600;28;20398;-69
2023/06/19 10:23:11;;;;;;;0.00;0.00;;;;;;;26.04;43.42;99906.31;5058327;28;20070;-69
2023/06/19 10:25:38;;;;;;;0.00;0.00;;;;;;;25.79;43.18;99910.41;5065431;28;20032;-70
2023/06/19 10:28:16;;;;;;;0.00;0.00;;;;;;;26.51;42.87;99904.75;5049233;28;20058;-71
2023/06/19 10:30:42;;;;;;;0.00;0.00;;;;;;;26.68;41.30;99910.91;5071814;28;20036;-70
2023/06/19 10:33:07;;;;;;;0.00;0.00;;;;;;;25.82;41.94;99900.47;5073814;28;20031;-70
2023/06/19 10:35:40;;;;;;;0.00;0.00;;;;;;;27.05;41.64;99904.38;5075796;28;20131;-70
2023/06/19 10:38:06;;;;;;;0.00;0.00;;;;;;;28.29;39.83;99916.53;5082409;28;20117;-69
2023/06/19 10:40:31;;;;;;;0.00;0.00;;;;;;;29.58;38.06;99900.72;5052158;28;20051;-69
2023/06/19 10:42:57;;;;;;;0.00;0.00;;;;;;;30.44;36.05;99902.28;5076572;28;20475;-70
2023/06/19 10:45:28;;;;;;;0.00;0.00;;;;;;;31.53;33.36;99902.00;5086590;28;20032;-69
2023/06/19 10:47:54;;;;;;;0.00;0.00;;;;;;;31.83;32.48;99899.22;5034244;28;20107;-69
2023/06/19 10:50:20;;;;;;;0.00;0.00;;;;;;;32.76;30.80;99896.22;5081070;28;20039;-70
2023/06/19 10:52:47;;;;;;;0.00;0.00;;;;;;;33.47;30.57;99893.28;5028767;28;20036;-69
2023/06/19 10:55:13;;;;;;;0.00;0.00;;;;;;;33.95;29.44;99901.56;5045252;28;20040;-69
2023/06/19 10:57:40;;;;;;;0.00;0.00;;;;;;;34.36;28.07;99895.38;5071001;28;20016;-69
2023/06/19 11:00:14;;;;;;;0.00;0.00;;;;;;;33.96;27.86;99883.31;5079096;28;20121;-70
2023/06/19 11:02:42;;;;;;;0.00;0.00;;;;;;;34.44;26.91;99884.63;5084477;28;20052;-70
2023/06/19 11:05:08;;;;;;;0.00;0.00;;;;;;;34.94;26.34;99883.34;5082560;28;20187;-69
2023/06/19 11:07:34;;;;;;;0.00;0.00;;;;;;;36.06;26.34;99880.13;5067036;28;20146;-70
2023/06/19 11:09:59;;;;;;;0.00;0.00;;;;;;;38.09;23.75;99885.94;5068258;28;20044;-68
2023/06/19 11:12:25;;;;;;;0.00;0.00;;;;;;;38.53;22.68;99876.41;5078525;28;20609;-69
2023/06/19 11:14:50;;;;;;;0.00;0.00;;;;;;;38.63;22.37;99878.00;5079077;28;20058;-71
2023/06/19 11:17:20;;;;;;;0.00;0.00;;;;;;;38.91;21.79;99872.34;5078764;28;20650;-69
2023/06/19 11:19:46;;;;;;;0.00;0.00;;;;;;;39.55;20.98;99877.19;5093700;28;20397;-69
2023/06/19 11:22:11;;;;;;;0.00;0.00;;;;;;;37.54;22.34;99872.16;5046042;28;20021;-71
2023/06/19 11:24:42;;;;;;;0.00;0.00;;;;;;;35.60;24.82;99870.94;5065810;28;20029;-69
2023/06/19 11:27:17;;;;;;;0.00;0.00;;;;;;;35.50;24.60;99867.19;5085701;28;20024;-68
2023/06/19 11:29:42;;;;;;;0.00;0.00;;;;;;;33.52;27.03;99869.28;5072994;28;20677;-70
2023/06/19 11:32:22;;;;;;;0.00;0.00;;;;;;;31.93;29.02;99868.41;5054040;28;20042;-69
2023/06/19 11:34:48;;;;;;;0.00;0.00;;;;;;;30.22;31.93;99867.78;5086065;28;20027;-68
2023/06/19 11:37:18;;;;;;;0.00;0.00;;;;;;;28.97;34.17;99870.75;5052762;28;20029;-69
2023/06/19 11:39:45;;;;;;;0.00;0.00;;;;;;;30.05;32.56;99875.13;5072831;28;20059;-70
2023/06/19 11:42:10;;;;;;;0.00;0.00;;;;;;;29.06;33.76;99862.69;5065064;28;20112;-69
2023/06/19 11:44:52;;;;;;;0.00;0.00;;;;;;;31.93;31.29;99869.19;5061560;28;20110;-69
2023/06/19 11:47:18;;;;;;;0.00;0.00;;;;;;;32.80;28.37;99865.81;5063665;28;20035;-69
2023/06/19 11:49:47;;;;;;;0.00;0.00;;;;;;;33.46;28.11;99877.50;5076314;28;20386;-69
2023/06/19 11:52:13;;;;;;;0.00;0.00;;;;;;;34.14;27.43;99877.22;5070176;28;20037;-69
2023/06/19 11:54:38;;;;;;;0.00;0.00;;;;;;;34.59;26.01;99880.19;5052306;28;20031;-69
2023/06/19 11:57:04;;;;;;;0.00;0.00;;;;;;;34.62;26.68;99878.47;5053643;28;20454;-69
2023/06/19 11:59:30;;;;;;;0.00;0.00;;;;;;;36.40;23.04;99883.53;5056255;28;20033;-69
2023/06/19 12:01:58;;;;;;;0.00;0.00;;;;;;;34.39;24.22;99873.78;5074711;28;20024;-71
2023/06/19 12:04:23;;;;;;;0.00;0.00;;;;;;;34.40;25.49;99870.53;5026094;28;20044;-69
2023/06/19 12:06:49;;;;;;;0.00;0.00;;;;;;;34.67;25.21;99862.94;5045119;28;20048;-68
2023/06/19 12:09:14;;;;;;;0.00;0.00;;;;;;;34.91;25.25;99867.19;5033622;28;20028;-69
2023/06/19 12:11:42;;;;;;;0.00;0.00;;;;;;;33.91;26.87;99868.44;5056315;28;20030;-68
2023/06/19 12:14:10;;;;;;;0.00;0.00;;;;;;;37.01;24.26;99862.28;5009380;28;20029;-69
2023/06/19 12:16:35;;;;;;;0.00;0.00;;;;;;;37.86;22.05;99867.28;5009541;28;20109;-69
2023/06/19 12:19:01;;;;;;;0.00;0.00;;;;;;;34.70;24.61;99860.03;5033870;28;20036;-70
2023/06/19 12:21:26;;;;;;;0.00;0.00;;;;;;;33.19;26.65;99866.28;5031158;28;20577;-69
2023/06/19 12:23:52;;;;;;;0.00;0.00;;;;;;;32.53;27.99;99869.50;5021992;28;20032;-70
2023/06/19 12:26:17;;;;;;;0.00;0.00;;;;;;;35.00;25.96;99885.63;5028110;28;20021;-70
2023/06/19 12:28:42;;;;;;;0.00;0.00;;;;;;;38.05;22.64;99866.09;5052520;28;20864;-70
2023/06/19 12:31:08;;;;;;;0.00;0.00;;;;;;;39.10;20.71;99871.03;5044368;28;20474;-69
2023/06/19 12:33:37;;;;;;;0.00;0.00;;;;;;;36.97;22.87;99873.00;5021176;28;20039;-69
2023/06/19 12:36:03;;;;;;;0.00;0.00;;;;;;;37.07;22.14;99890.19;5048469;28;20024;-68
2023/06/19 12:38:28;;;;;;;0.00;0.00;;;;;;;36.89;22.76;99883.09;5045937;28;20028;-70
2023/06/19 12:40:54;;;;;;;0.00;0.00;;;;;;;36.18;22.92;99872.81;5046915;28;20391;-69
2023/06/19 12:43:19;;;;;;;0.00;0.00;;;;;;;34.12;25.08;99874.84;5033884;28;20111;-68
2023/06/19 12:45:46;;;;;;;0.00;0.00;;;;;;;32.65;26.68;99864.44;5052792;28;20040;-69
2023/06/19 12:48:11;;;;;;;0.00;0.00;;;;;;;32.25;27.88;99858.66;5056660;28;20096;-69
2023/06/19 12:50:36;;;;;;;0.00;0.00;;;;;;;32.49;27.90;99888.56;5030277;28;20426;-68
2023/06/19 12:53:02;;;;;;;0.00;0.00;;;;;;;34.83;25.94;99877.16;5038640;28;20137;-69
2023/06/19 12:55:27;;;;;;;0.00;0.00;;;;;;;37.31;23.36;99874.25;5048838;28;20091;-68
2023/06/19 12:57:53;;;;;;;0.00;0.00;;;;;;;38.81;21.20;99893.59;5036765;28;20032;-69
2023/06/19 13:00:18;;;;;;;0.00;0.00;;;;;;;38.83;20.90;99882.47;5012614;28;20033;-70
2023/06/19 13:02:46;;;;;;;0.00;0.00;;;;;;;39.94;20.10;99888.03;5059203;28;20442;-69
2023/06/19 13:05:12;;;;;;;0.00;0.00;;;;;;;40.53;19.17;99884.00;5069882;28;20036;-69
2023/06/19 13:07:37;;;;;;;0.00;0.00;;;;;;;40.18;18.92;99879.53;5080003;28;20024;-70
2023/06/19 13:10:05;;;;;;;0.00;0.00;;;;;;;40.41;18.49;99877.97;5085365;28;20084;-69
2023/06/19 13:12:31;;;;;;;0.00;0.00;;;;;;;41.26;18.59;99881.81;5094129;28;20031;-69
2023/06/19 13:14:56;;;;;;;0.00;0.00;;;;;;;40.49;18.13;99881.28;5077592;28;20031;-71
2023/06/19 13:17:22;;;;;;;0.00;0.00;;;;;;;38.97;20.07;99864.69;5049152;28;20055;-71
2023/06/19 13:19:47;;;;;;;0.00;0.00;;;;;;;41.50;19.34;99876.00;5076831;28;20577;-69
2023/06/19 13:22:13;;;;;;;0.00;0.00;;;;;;;42.75;17.50;99861.47;5093855;28;20456;-69
2023/06/19 13:24:38;;;;;;;0.00;0.00;;;;;;;41.62;17.91;99866.31;5082595;28;20031;-69
2023/06/19 13:27:03;;;;;;;0.00;0.00;;;;;;;40.09;19.20;99874.66;5075013;28;20971;-69
2023/06/19 13:29:29;;;;;;;0.00;0.00;;;;;;;41.22;19.29;99866.88;5093189;28;20523;-70
2023/06/19 13:31:54;;;;;;;0.00;0.00;;;;;;;43.56;16.66;99868.34;5063661;28;20035;-69
2023/06/19 13:34:21;;;;;;;0.00;0.00;;;;;;;45.18;15.55;99868.19;5097821;28;20089;-70
2023/06/19 13:36:47;;;;;;;0.00;0.00;;;;;;;45.35;15.08;99856.69;5087738;28;20028;-68
2023/06/19 13:39:13;;;;;;;0.00;0.00;;;;;;;43.95;14.65;99851.91;5097566;27;20089;-69
2023/06/19 13:41:39;;;;;;;0.00;0.00;;;;;;;40.48;17.17;99851.88;5078589;28;20024;-69
2023/06/19 13:44:04;;;;;;;0.00;0.00;;;;;;;40.75;17.88;99838.59;5086481;28;20038;-69
2023/06/19 13:46:31;;;;;;;0.00;0.00;;;;;;;41.22;17.09;99850.47;5094574;28;20020;-69
2023/06/19 13:48:57;;;;;;;0.00;0.00;;;;;;;41.06;17.24;99840.25;5078843;28;20085;-73
2023/06/19 13:51:23;;;;;;;0.00;0.00;;;;;;;42.23;16.55;99859.19;5075793;28;20165;-72
2023/06/19 13:53:50;;;;;;;0.00;0.00;;;;;;;42.81;15.77;99838.53;5082922;27;20468;-72
2023/06/19 13:56:15;;;;;;;0.00;0.00;;;;;;;39.39;18.04;99826.88;5095069;28;20054;-70
2023/06/19 13:58:41;;;;;;;0.00;0.00;;;;;;;36.36;21.27;99829.56;5078083;28;20040;-69
2023/06/19 14:01:07;;;;;;;0.00;0.00;;;;;;;34.45;22.93;99826.63;5090443;28;20117;-70
2023/06/19 14:03:32;;;;;;;0.00;0.00;;;;;;;33.27;24.95;99833.00;5079340;28;20597;-69